Beulah Beach, Ohio
Current Conditions -  °F | °C
As of 7:53 PM on Saturday 22 Nov 2014 (Local Time) from KLPR Reporting Station
Overcast Overcast  
Wind Chill: 43°   Ceiling: 6000
Heat Index: 49°   Visibility: 10mi
Dew Point: 37°   Wind: 16mph
Humidity: 64%   Direction: 210°SSW
Pressure: 30.02"   Gusts: NA
Location:  41.3884°N, 82.3643°W
Report Text: KLPR 230053Z AUTO 21014KT 10SM SCT044 BKN060 OVC090 09/03 A3002 RMK AO2 SLP171 T00940028 TSNO
Loading
Personal Weather Stations






























Interactive Weather Map New forecast layout! Learn more

10-Day Weather Forecast

Advertisements
Track Severe Weather on mobile